Time;durP1;ratioP1;P1;durP2;ratioP2;P2;SDS_P1;SDS_P2;PMS_P1;PMS_P2;Temp;Humidity;BMP_temperature;BMP_pressure;BME280_temperature;BME280_humidity;BME280_pressure;Samples;Min_cycle;Max_cycle;Signal;HPM_P1;HPM_P2
2021/01/13 00:00:53;;;;;;;;;;;;;;;14.82;55.91;101869.13;4969011;28;1295;-70
2021/01/13 00:03:40;;;;;;;;;;;;;;;14.84;55.99;101872.56;4988184;28;1364;-69
2021/01/13 00:09:49;;;;;;;;;;;;;;;14.78;55.83;101882.31;5176317;22;1663;-69
2021/01/13 00:12:15;;;;;;;;;;;;;;;14.77;56.08;101875.34;5030661;28;1441;-67
2021/01/13 00:14:43;;;;;;;;;;;;;;;14.78;56.28;101870.97;5071239;28;841;-66
2021/01/13 00:17:11;;;;;;;;;;;;;;;14.75;56.08;101866.66;5071770;28;1508;-69
2021/01/13 00:19:40;;;;;;;;;;;;;;;14.76;55.84;101868.38;5065804;28;1314;-67
2021/01/13 00:22:07;;;;;;;;;;;;;;;14.72;55.90;101869.34;5091461;28;1294;-67
2021/01/13 00:24:33;;;;;;;;;;;;;;;14.72;55.79;101860.59;5091415;28;879;-68
2021/01/13 00:27:01;;;;;;;;;;;;;;;14.73;55.90;101857.09;5091443;28;1975;-67
2021/01/13 00:29:28;;;;;;;;;;;;;;;14.69;55.75;101843.19;5091185;28;833;-67
2021/01/13 00:31:57;;;;;;;;;;;;;;;14.68;55.99;101841.44;5091180;28;1167;-67
2021/01/13 00:34:24;;;;;;;;;;;;;;;14.69;55.89;101829.19;5090822;28;778;-68
2021/01/13 00:36:50;;;;;;;;;;;;;;;14.68;56.02;101825.72;5072657;28;1283;-68
2021/01/13 00:39:17;;;;;;;;;;;;;;;14.63;56.11;101814.47;5072715;28;1311;-68
2021/01/13 00:41:44;;;;;;;;;;;;;;;14.65;55.73;101817.06;5091345;28;1210;-68
2021/01/13 00:44:10;;;;;;;;;;;;;;;14.62;56.04;101809.28;5072817;28;1302;-68
2021/01/13 00:46:37;;;;;;;;;;;;;;;14.62;55.92;101804.03;5090810;28;1986;-68
2021/01/13 00:49:04;;;;;;;;;;;;;;;14.61;55.84;101799.69;5091466;28;1306;-68
2021/01/13 00:51:35;;;;;;;;;;;;;;;14.60;55.87;101782.22;5091422;28;773;-68
2021/01/13 00:54:01;;;;;;;;;;;;;;;14.58;55.99;101786.63;5072972;28;1390;-68
2021/01/13 00:56:28;;;;;;;;;;;;;;;14.58;56.17;101778.78;5072802;28;1215;-70
2021/01/13 00:58:55;;;;;;;;;;;;;;;14.57;56.06;101792.78;5090964;28;1259;-68
2021/01/13 01:01:27;;;;;;;;;;;;;;;14.57;56.15;101809.38;5080612;28;892;-66
2021/01/13 01:04:23;;;;;;;;;;;;;;;14.56;56.19;101807.63;5052493;28;1288;-70
2021/01/13 01:07:07;;;;;;;;;;;;;;;14.56;56.29;101812.88;5049307;28;1934;-67
2021/01/13 01:09:33;;;;;;;;;;;;;;;14.54;56.46;101805.94;5072784;28;1673;-68
2021/01/13 01:12:00;;;;;;;;;;;;;;;14.53;56.78;101817.38;5055465;28;1358;-68
2021/01/13 01:14:26;;;;;;;;;;;;;;;14.52;56.47;101810.38;5072181;28;1446;-67
2021/01/13 01:16:52;;;;;;;;;;;;;;;14.49;56.43;101810.44;5090408;28;1179;-68
2021/01/13 01:19:19;;;;;;;;;;;;;;;14.50;56.48;101797.28;5090492;28;1280;-67
2021/01/13 01:21:46;;;;;;;;;;;;;;;14.49;56.73;101813.94;5090626;28;1131;-66
2021/01/13 01:24:12;;;;;;;;;;;;;;;14.48;56.40;101817.44;5090342;28;1337;-66
2021/01/13 01:26:48;;;;;;;;;;;;;;;14.49;56.64;101810.44;5090121;28;1981;-67
2021/01/13 01:29:14;;;;;;;;;;;;;;;14.48;56.54;101814.81;5090336;28;1298;-67
2021/01/13 01:31:47;;;;;;;;;;;;;;;14.48;56.87;101809.59;5056051;28;1179;-67
2021/01/13 01:34:13;;;;;;;;;;;;;;;14.47;56.69;101812.25;5088945;28;1351;-67
2021/01/13 01:36:40;;;;;;;;;;;;;;;14.46;56.45;101826.25;5071949;28;1283;-68
2021/01/13 01:39:06;;;;;;;;;;;;;;;14.46;56.87;101828.88;5090270;28;1315;-66
2021/01/13 01:41:32;;;;;;;;;;;;;;;14.43;56.81;101832.44;5071968;28;805;-67
2021/01/13 01:43:59;;;;;;;;;;;;;;;14.42;56.95;101814.97;5071483;28;1357;-67
2021/01/13 01:46:25;;;;;;;;;;;;;;;14.43;56.89;101815.84;5070658;28;1906;-67
2021/01/13 01:48:53;;;;;;;;;;;;;;;14.40;56.79;101819.38;5071781;28;1243;-67
2021/01/13 01:51:22;;;;;;;;;;;;;;;14.39;56.56;101809.78;5071465;28;1204;-66
2021/01/13 01:53:54;;;;;;;;;;;;;;;14.36;56.68;101825.59;5071632;28;1308;-66
2021/01/13 01:56:24;;;;;;;;;;;;;;;14.38;57.08;101822.94;5090843;28;1142;-68
2021/01/13 01:58:59;;;;;;;;;;;;;;;14.36;56.96;101824.72;5089542;28;1365;-66
2021/01/13 02:01:44;;;;;;;;;;;;;;;14.37;56.86;101816.84;5070175;28;1547;-67
2021/01/13 02:04:16;;;;;;;;;;;;;;;14.36;56.78;101816.84;5089599;28;1226;-68
2021/01/13 02:07:02;;;;;;;;;;;;;;;14.34;56.67;101819.53;5071408;28;1977;-67
2021/01/13 02:09:29;;;;;;;;;;;;;;;14.35;56.84;101821.22;5076209;28;1319;-67
2021/01/13 02:11:59;;;;;;;;;;;;;;;14.34;56.76;101814.28;5089565;28;885;-67
2021/01/13 02:14:26;;;;;;;;;;;;;;;14.32;56.69;101823.88;5089567;28;778;-68
2021/01/13 02:16:56;;;;;;;;;;;;;;;14.33;56.85;101819.53;5089411;28;994;-68
2021/01/13 02:19:26;;;;;;;;;;;;;;;14.30;56.84;101815.19;5089558;28;865;-69
2021/01/13 02:21:52;;;;;;;;;;;;;;;14.30;56.93;101809.97;5089523;28;1055;-69
2021/01/13 02:24:37;;;;;;;;;;;;;;;14.31;56.93;101809.06;5087968;28;1557;-69
2021/01/13 02:27:10;;;;;;;;;;;;;;;14.30;56.98;101809.97;5089279;28;1906;-69
2021/01/13 02:29:43;;;;;;;;;;;;;;;14.29;56.69;101804.75;5071336;28;782;-69
2021/01/13 02:32:41;;;;;;;;;;;;;;;14.26;57.06;101805.66;5089395;28;1274;-68
2021/01/13 02:35:17;;;;;;;;;;;;;;;14.26;56.90;101794.34;5034218;28;1267;-68
2021/01/13 02:38:01;;;;;;;;;;;;;;;14.26;57.26;101791.72;5089401;28;1358;-68
2021/01/13 02:40:28;;;;;;;;;;;;;;;14.24;56.87;101794.38;5089395;28;804;-67
2021/01/13 02:43:24;;;;;;;;;;;;;;;14.22;56.79;101790.94;5070711;28;1278;-68
2021/01/13 02:45:50;;;;;;;;;;;;;;;14.23;57.22;101787.38;5067785;28;987;-68
2021/01/13 02:48:20;;;;;;;;;;;;;;;14.22;56.84;101783.94;5088752;28;1905;-68
2021/01/13 02:50:50;;;;;;;;;;;;;;;14.20;57.10;101783.09;5053651;28;1350;-69
2021/01/13 02:53:17;;;;;;;;;;;;;;;14.20;57.23;101779.59;5089193;28;1307;-68
2021/01/13 02:55:46;;;;;;;;;;;;;;;14.19;57.22;101775.28;5088581;28;1096;-69
2021/01/13 02:58:13;;;;;;;;;;;;;;;14.20;57.19;101784.84;5070775;28;1348;-67
2021/01/13 03:00:40;;;;;;;;;;;;;;;14.19;57.19;101780.50;5070915;28;1375;-70
2021/01/13 03:03:06;;;;;;;;;;;;;;;14.19;57.23;101777.88;5089013;28;1273;-67
2021/01/13 03:05:33;;;;;;;;;;;;;;;14.19;57.04;101780.50;5088867;28;1059;-67
2021/01/13 03:07:59;;;;;;;;;;;;;;;14.17;57.47;101782.28;5070206;28;2031;-68
2021/01/13 03:10:26;;;;;;;;;;;;;;;14.15;57.26;101774.47;5088863;28;1158;-68
2021/01/13 03:13:03;;;;;;;;;;;;;;;14.17;57.50;101795.38;5087480;28;1404;-68
2021/01/13 03:15:30;;;;;;;;;;;;;;;14.14;57.36;101779.72;5088710;28;786;-68
2021/01/13 03:18:00;;;;;;;;;;;;;;;14.13;57.21;101770.16;5070847;28;1236;-68
2021/01/13 03:20:44;;;;;;;;;;;;;;;14.12;57.30;101757.94;5070718;28;1174;-69
2021/01/13 03:23:14;;;;;;;;;;;;;;;14.11;57.30;101778.03;5088846;28;1355;-69
2021/01/13 03:25:51;;;;;;;;;;;;;;;14.11;57.44;101777.16;5070424;28;785;-69
2021/01/13 03:28:18;;;;;;;;;;;;;;;14.12;57.62;101771.03;5088921;28;1972;-68
2021/01/13 03:30:49;;;;;;;;;;;;;;;14.13;57.61;101780.66;5088581;28;773;-67
2021/01/13 03:33:15;;;;;;;;;;;;;;;14.13;57.42;101772.78;5088962;28;1239;-67
2021/01/13 03:35:43;;;;;;;;;;;;;;;14.10;57.46;101770.22;5088438;28;1001;-68
2021/01/13 03:38:19;;;;;;;;;;;;;;;14.07;57.49;101784.22;5088887;28;1292;-68
2021/01/13 03:40:46;;;;;;;;;;;;;;;14.08;57.52;101774.63;5089264;28;718;-68
2021/01/13 03:43:20;;;;;;;;;;;;;;;14.09;57.53;101784.22;5088660;28;1279;-67
2021/01/13 03:45:52;;;;;;;;;;;;;;;14.08;57.27;101785.09;5088397;28;1029;-68
2021/01/13 03:48:27;;;;;;;;;;;;;;;14.07;57.47;101776.38;5087931;28;1905;-67
2021/01/13 03:50:55;;;;;;;;;;;;;;;14.07;57.45;101772.91;5088016;28;723;-68
2021/01/13 03:53:21;;;;;;;;;;;;;;;14.03;57.02;101769.50;5088213;28;1338;-68
2021/01/13 03:55:49;;;;;;;;;;;;;;;14.03;57.43;101771.25;5088044;28;1161;-68
2021/01/13 03:58:31;;;;;;;;;;;;;;;14.03;57.50;101766.00;5068835;28;1401;-68
2021/01/13 04:01:03;;;;;;;;;;;;;;;14.03;57.38;101772.13;5088251;28;786;-68
2021/01/13 04:03:31;;;;;;;;;;;;;;;14.02;57.51;101767.75;5070089;28;1304;-68
2021/01/13 04:06:06;;;;;;;;;;;;;;;14.03;57.39;101779.09;5088138;28;778;-68
2021/01/13 04:08:42;;;;;;;;;;;;;;;14.00;57.63;101782.66;5089210;28;1979;-67
2021/01/13 04:11:12;;;;;;;;;;;;;;;14.02;57.41;101777.38;5092067;28;1095;-70
2021/01/13 04:13:44;;;;;;;;;;;;;;;14.00;57.61;101773.94;5090435;28;1421;-68
2021/01/13 04:16:14;;;;;;;;;;;;;;;14.00;57.62;101781.78;5091730;28;758;-68
2021/01/13 04:18:44;;;;;;;;;;;;;;;14.01;57.21;101778.28;5091388;28;1382;-68
2021/01/13 04:21:12;;;;;;;;;;;;;;;13.98;57.39;101767.88;5091547;28;809;-68
2021/01/13 04:23:39;;;;;;;;;;;;;;;13.98;57.61;101763.47;5073515;28;1275;-69
2021/01/13 04:26:06;;;;;;;;;;;;;;;13.98;57.59;101765.25;5091525;28;1119;-68
2021/01/13 04:28:33;;;;;;;;;;;;;;;13.98;57.27;101767.88;5091732;28;1910;-68
2021/01/13 04:31:00;;;;;;;;;;;;;;;13.96;57.38;101772.25;5091535;28;1060;-68
2021/01/13 04:33:26;;;;;;;;;;;;;;;13.97;57.56;101771.38;5091671;28;1394;-68
2021/01/13 04:35:53;;;;;;;;;;;;;;;13.96;57.56;101772.25;5090939;28;796;-68
2021/01/13 04:38:23;;;;;;;;;;;;;;;13.96;57.52;101777.50;5090463;28;1381;-68
2021/01/13 04:40:52;;;;;;;;;;;;;;;13.96;57.71;101772.25;5056039;28;1409;-69
2021/01/13 04:43:21;;;;;;;;;;;;;;;13.96;57.70;101777.50;5091342;28;1275;-69
2021/01/13 04:45:47;;;;;;;;;;;;;;;13.93;57.90;101775.81;5091228;28;841;-68
2021/01/13 04:48:18;;;;;;;;;;;;;;;13.92;57.77;101775.84;5091164;28;1913;-68
2021/01/13 04:50:47;;;;;;;;;;;;;;;13.92;57.63;101775.84;5072675;28;1239;-69
2021/01/13 04:53:15;;;;;;;;;;;;;;;13.92;57.96;101787.16;5072029;28;1379;-68
2021/01/13 04:55:44;;;;;;;;;;;;;;;13.92;57.62;101781.09;5090987;28;869;-69
2021/01/13 04:58:29;;;;;;;;;;;;;;;13.91;57.69;101774.13;5072988;28;1292;-68
2021/01/13 05:01:13;;;;;;;;;;;;;;;13.89;57.54;101789.00;5073002;28;1062;-69
2021/01/13 05:03:50;;;;;;;;;;;;;;;13.90;57.62;101788.09;5091099;28;1358;-68
2021/01/13 05:06:47;;;;;;;;;;;;;;;13.89;57.85;101792.47;5090966;28;762;-68
2021/01/13 05:09:13;;;;;;;;;;;;;;;13.89;57.85;101789.00;5075037;28;1436;-68
2021/01/13 05:11:41;;;;;;;;;;;;;;;13.85;57.67;101788.22;5052234;28;1319;-68
2021/01/13 05:14:08;;;;;;;;;;;;;;;13.86;57.91;101792.53;5063187;28;1544;-67
2021/01/13 05:16:46;;;;;;;;;;;;;;;13.88;57.53;101790.75;5080973;28;1550;-68
2021/01/13 05:19:37;;;;;;;;;;;;;;;13.86;57.69;101795.16;5070366;28;1290;-67
2021/01/13 05:22:07;;;;;;;;;;;;;;;13.86;57.94;101796.94;5070602;28;1265;-68
2021/01/13 05:24:39;;;;;;;;;;;;;;;13.85;57.56;101800.44;5070741;28;867;-67
2021/01/13 05:27:18;;;;;;;;;;;;;;;13.84;57.41;101788.22;5070119;28;1968;-67
2021/01/13 05:29:47;;;;;;;;;;;;;;;13.83;57.38;101789.13;5070170;28;779;-67
2021/01/13 05:32:14;;;;;;;;;;;;;;;13.84;57.64;101780.38;5052155;28;1310;-68
2021/01/13 05:34:44;;;;;;;;;;;;;;;13.84;57.62;101777.75;5052206;28;845;-67
2021/01/13 05:37:13;;;;;;;;;;;;;;;13.84;57.94;101775.13;5069902;28;1332;-67
2021/01/13 05:39:41;;;;;;;;;;;;;;;13.82;57.89;101775.19;5051888;28;1290;-66
2021/01/13 05:42:27;;;;;;;;;;;;;;;13.80;57.59;101782.19;5052453;28;1272;-67
2021/01/13 05:44:54;;;;;;;;;;;;;;;13.78;57.89;101768.25;5051748;28;1660;-68
2021/01/13 05:47:40;;;;;;;;;;;;;;;13.81;57.78;101778.69;5051567;28;1914;-67
2021/01/13 05:50:26;;;;;;;;;;;;;;;13.79;57.91;101780.47;5049094;28;1545;-68
2021/01/13 05:52:53;;;;;;;;;;;;;;;13.78;57.68;101772.63;5084136;28;1364;-68
2021/01/13 05:55:21;;;;;;;;;;;;;;;13.78;57.71;101777.88;5086367;28;1047;-68
2021/01/13 05:57:58;;;;;;;;;;;;;;;13.78;57.84;101794.47;5089927;28;1343;-67
2021/01/13 06:00:25;;;;;;;;;;;;;;;13.77;57.70;101802.34;5071663;28;1032;-67
2021/01/13 06:02:58;;;;;;;;;;;;;;;13.76;57.91;101790.16;5075942;28;1276;-68
2021/01/13 06:05:25;;;;;;;;;;;;;;;13.75;57.80;101791.03;5069166;28;846;-67
2021/01/13 06:07:52;;;;;;;;;;;;;;;13.75;57.56;101805.00;5051136;28;1906;-67
2021/01/13 06:10:19;;;;;;;;;;;;;;;13.73;57.74;101790.22;5051522;28;1315;-67
2021/01/13 06:12:47;;;;;;;;;;;;;;;13.74;57.83;101786.72;5082890;28;1244;-66
2021/01/13 06:15:14;;;;;;;;;;;;;;;13.73;57.77;101787.59;5089381;28;809;-68
2021/01/13 06:17:59;;;;;;;;;;;;;;;13.72;57.36;101784.09;5089393;28;1366;-68
2021/01/13 06:20:26;;;;;;;;;;;;;;;13.71;57.52;101786.75;5089307;28;802;-67
2021/01/13 06:22:53;;;;;;;;;;;;;;;13.71;57.49;101781.53;5089473;28;1272;-68
2021/01/13 06:25:20;;;;;;;;;;;;;;;13.71;57.87;101784.97;5072061;28;793;-68
2021/01/13 06:28:08;;;;;;;;;;;;;;;13.70;57.62;101785.91;5051141;28;1922;-68
2021/01/13 06:30:39;;;;;;;;;;;;;;;13.69;57.54;101785.03;5050358;28;1195;-68
2021/01/13 06:33:23;;;;;;;;;;;;;;;13.73;57.68;101788.47;5069056;28;1260;-69
2021/01/13 06:36:08;;;;;;;;;;;;;;;13.68;58.01;101778.06;5050853;28;869;-67
2021/01/13 06:38:53;;;;;;;;;;;;;;;13.69;58.38;101785.03;5050994;28;1280;-67
2021/01/13 06:41:26;;;;;;;;;;;;;;;13.68;58.12;101788.53;5050573;28;1177;-69
2021/01/13 06:43:56;;;;;;;;;;;;;;;13.71;58.45;101784.16;5068777;28;1266;-67
2021/01/13 06:46:23;;;;;;;;;;;;;;;13.78;58.27;101783.97;5067422;28;1174;-68
2021/01/13 06:48:49;;;;;;;;;;;;;;;13.89;57.89;101794.25;5033861;28;1930;-68
2021/01/13 06:51:16;;;;;;;;;;;;;;;13.82;57.96;101788.28;5050846;28;1275;-67
2021/01/13 06:53:45;;;;;;;;;;;;;;;13.76;58.20;101784.91;5050709;28;1260;-68
2021/01/13 06:56:17;;;;;;;;;;;;;;;13.84;59.00;101789.09;5067207;28;1279;-68
2021/01/13 06:58:57;;;;;;;;;;;;;;;13.72;58.56;101786.72;5050285;28;1220;-67
2021/01/13 07:01:23;;;;;;;;;;;;;;;13.73;58.29;101790.22;5050822;28;865;-66
2021/01/13 07:03:59;;;;;;;;;;;;;;;13.69;58.68;101790.25;5050830;28;1323;-67
2021/01/13 07:06:26;;;;;;;;;;;;;;;13.70;58.90;101785.91;5068686;28;959;-67
2021/01/13 07:08:53;;;;;;;;;;;;;;;13.71;58.67;101781.53;5068487;28;1910;-68
2021/01/13 07:11:20;;;;;;;;;;;;;;;13.71;58.94;101776.28;5041980;28;1541;-68
2021/01/13 07:13:50;;;;;;;;;;;;;;;13.69;58.69;101778.94;5064616;28;1224;-69
2021/01/13 07:16:26;;;;;;;;;;;;;;;13.68;59.18;101783.28;5050674;28;1602;-66
2021/01/13 07:19:22;;;;;;;;;;;;;;;13.66;59.01;101779.84;5077407;28;1758;-67
2021/01/13 07:21:49;;;;;;;;;;;;;;;13.69;59.08;101773.69;5043264;28;1486;-68
2021/01/13 07:24:15;;;;;;;;;;;;;;;13.71;59.23;101760.59;5088225;28;1256;-67
2021/01/13 07:26:43;;;;;;;;;;;;;;;13.68;59.37;101767.59;5088412;28;1917;-68
2021/01/13 07:29:10;;;;;;;;;;;;;;;13.83;59.13;101771.63;5070173;28;1310;-68
2021/01/13 07:31:36;;;;;;;;;;;;;;;13.76;59.00;101764.81;5064757;28;1436;-67
2021/01/13 07:34:07;;;;;;;;;;;;;;;13.68;59.60;101771.94;5067418;28;1209;-67
2021/01/13 07:36:36;;;;;;;;;;;;;;;13.69;59.13;101776.31;5067830;28;997;-67
2021/01/13 07:39:04;;;;;;;;;;;;;;;13.67;59.26;101775.47;5066501;28;1237;-67
2021/01/13 07:41:50;;;;;;;;;;;;;;;13.66;59.06;101768.50;5066336;28;996;-68
2021/01/13 07:44:38;;;;;;;;;;;;;;;13.66;59.50;101773.75;5070335;28;1201;-67
2021/01/13 07:47:18;;;;;;;;;;;;;;;13.67;59.37;101780.72;5062650;28;1934;-69
2021/01/13 07:49:53;;;;;;;;;;;;;;;13.67;59.50;101781.59;5063060;28;1448;-68
2021/01/13 07:52:23;;;;;;;;;;;;;;;13.65;59.18;101783.34;5051698;28;1248;-68
2021/01/13 07:54:49;;;;;;;;;;;;;;;13.72;59.09;101791.09;5032855;28;1079;-68
2021/01/13 07:57:22;;;;;;;;;;;;;;;13.69;59.20;101789.41;5041937;28;1248;-70
2021/01/13 08:00:04;;;;;;;;;;;;;;;13.70;59.16;101783.28;5071265;28;1196;-67
2021/01/13 08:02:39;;;;;;;;;;;;;;;13.74;58.95;101787.53;5085711;28;1303;-69
2021/01/13 08:05:21;;;;;;;;;;;;;;;13.98;58.61;101792.28;5089153;28;1181;-66
2021/01/13 08:08:13;;;;;;;;;;;;;;;14.15;58.46;101791.94;5069833;28;1913;-67
2021/01/13 08:10:40;;;;;;;;;;;;;;;14.42;58.12;101800.97;5065936;28;1210;-66
2021/01/13 08:13:12;;;;;;;;;;;;;;;14.52;58.01;101808.63;5069263;28;1287;-67
2021/01/13 08:15:39;;;;;;;;;;;;;;;14.80;57.41;101815.84;5067707;28;1148;-67
2021/01/13 08:18:15;;;;;;;;;;;;;;;15.06;56.60;101826.56;5069780;28;1395;-66
2021/01/13 08:20:42;;;;;;;;;;;;;;;15.26;55.97;101821.66;5069055;28;1183;-67
2021/01/13 08:23:11;;;;;;;;;;;;;;;15.43;55.81;101822.13;5070798;28;1311;-67
2021/01/13 08:25:42;;;;;;;;;;;;;;;15.54;55.45;101816.59;5069399;28;1815;-66
2021/01/13 08:28:12;;;;;;;;;;;;;;;15.63;55.48;101811.09;5051102;28;1911;-67
2021/01/13 08:30:40;;;;;;;;;;;;;;;15.70;55.24;101813.53;5067602;28;1318;-66
2021/01/13 08:33:09;;;;;;;;;;;;;;;15.80;55.15;101812.38;5069321;28;1353;-67
2021/01/13 08:35:36;;;;;;;;;;;;;;;15.88;55.06;101806.88;5069819;28;1049;-67
2021/01/13 08:38:10;;;;;;;;;;;;;;;15.98;55.04;101820.63;5069009;28;1431;-69
2021/01/13 08:40:37;;;;;;;;;;;;;;;16.11;54.77;101819.38;5069151;28;1079;-68
2021/01/13 08:43:14;;;;;;;;;;;;;;;16.13;54.66;101812.31;5069181;28;1437;-70
2021/01/13 08:45:45;;;;;;;;;;;;;;;16.15;54.52;101823.63;5044119;28;1025;-69
2021/01/13 08:48:15;;;;;;;;;;;;;;;16.18;54.47;101836.69;5031154;28;1914;-69
2021/01/13 08:51:04;;;;;;;;;;;;;;;16.21;54.48;101834.84;5056791;28;1544;-69
2021/01/13 08:54:11;;;;;;;;;;;;;;;16.27;54.30;101845.16;5066992;28;1539;-70
2021/01/13 08:57:07;;;;;;;;;;;;;;;16.28;54.02;101854.78;5050072;28;2163;-69
2021/01/13 08:59:53;;;;;;;;;;;;;;;16.29;54.06;101856.50;5050571;28;1713;-70
2021/01/13 09:02:45;;;;;;;;;;;;;;;16.29;54.15;101860.91;5063310;28;1615;-68
2021/01/13 09:06:42;;;;;;;;;;;;;;;16.55;54.03;101865.41;5063489;28;1531;-71
2021/01/13 09:09:20;;;;;;;;;;;;;;;16.37;53.60;101858.91;4971443;28;1983;-69
2021/01/13 09:11:51;;;;;;;;;;;;;;;16.35;53.43;101871.25;4978393;28;1640;-67
2021/01/13 09:14:27;;;;;;;;;;;;;;;16.38;53.13;101876.41;5034332;28;1585;-69
2021/01/13 09:16:54;;;;;;;;;;;;;;;16.39;52.90;101879.00;5056838;28;1589;-67
2021/01/13 09:20:39;;;;;;;;;;;;;;;16.41;52.45;101882.44;5024250;28;1553;-70
2021/01/13 09:23:05;;;;;;;;;;;;;;;16.47;51.68;101886.66;4976392;28;1636;-67
2021/01/13 09:25:33;;;;;;;;;;;;;;;16.45;51.95;101895.47;4991570;28;1690;-68
2021/01/13 09:28:17;;;;;;;;;;;;;;;16.47;51.85;101891.06;5004114;28;1957;-69
2021/01/13 09:30:46;;;;;;;;;;;;;;;16.50;51.44;101898.88;5058828;28;1657;-68
2021/01/13 09:33:17;;;;;;;;;;;;;;;16.53;51.07;101890.88;5056596;28;1527;-68
2021/01/13 09:39:32;;;;;;;;;;;;;;;16.54;50.88;101882.06;5065795;23;1596;-66
2021/01/13 09:45:01;;;;;;;;;;;;;;;16.62;50.33;101885.38;4976636;28;1584;-68
2021/01/13 09:47:59;;;;;;;;;;;;;;;16.59;50.55;101883.72;4974684;28;1970;-70
2021/01/13 09:53:48;;;;;;;;;;;;;;;16.66;49.94;101895.75;4946975;28;1631;-69
2021/01/13 09:56:14;;;;;;;;;;;;;;;16.69;50.01;101892.16;4976648;28;1656;-70
2021/01/13 09:58:42;;;;;;;;;;;;;;;16.68;49.77;101896.59;4977944;28;1600;-70
2021/01/13 10:04:40;;;;;;;;;;;;;;;16.65;50.64;101912.47;5016287;23;1795;-69
2021/01/13 10:07:30;;;;;;;;;;;;;;;16.63;49.97;101909.00;4961885;28;1895;-70
2021/01/13 10:09:57;;;;;;;;;;;;;;;16.59;50.31;101910.00;4974703;28;1902;-70
2021/01/13 10:12:34;;;;;;;;;;;;;;;16.55;50.81;101911.00;4977178;28;1517;-69
2021/01/13 10:15:02;;;;;;;;;;;;;;;16.61;50.07;101917.84;4975956;28;1574;-70
2021/01/13 10:17:28;;;;;;;;;;;;;;;16.67;51.25;101921.16;4956789;28;1640;-69
2021/01/13 10:19:58;;;;;;;;;;;;;;;16.70;52.58;101918.44;4957974;28;1543;-67
2021/01/13 10:22:24;;;;;;;;;;;;;;;16.73;54.00;101928.88;4960052;28;2642;-69
2021/01/13 10:24:51;;;;;;;;;;;;;;;16.80;53.99;101922.53;4978669;28;1736;-68
2021/01/13 10:27:18;;;;;;;;;;;;;;;16.78;53.17;101921.69;4977305;28;1984;-68
2021/01/13 10:29:45;;;;;;;;;;;;;;;16.89;54.14;101927.50;4977570;28;1413;-70
2021/01/13 10:32:12;;;;;;;;;;;;;;;16.93;53.82;101929.09;4975847;28;1685;-68
2021/01/13 10:34:39;;;;;;;;;;;;;;;16.99;53.85;101930.72;4944895;28;1702;-70
2021/01/13 10:37:05;;;;;;;;;;;;;;;16.93;54.52;101921.22;4978034;28;1390;-67
2021/01/13 10:39:32;;;;;;;;;;;;;;;16.94;54.03;101929.97;4958406;28;1589;-69
2021/01/13 10:42:05;;;;;;;;;;;;;;;16.98;53.62;101921.09;4956373;28;1536;-69
2021/01/13 10:44:32;;;;;;;;;;;;;;;17.02;54.12;101925.34;4974727;28;1651;-69
2021/01/13 10:47:00;;;;;;;;;;;;;;;17.00;54.07;101926.28;4958366;28;1914;-68
2021/01/13 10:49:34;;;;;;;;;;;;;;;16.98;53.77;101925.50;4975938;28;1679;-68
2021/01/13 10:52:02;;;;;;;;;;;;;;;17.00;54.19;101919.25;4977529;28;1359;-69
2021/01/13 10:54:29;;;;;;;;;;;;;;;17.11;55.89;101921.56;4976692;28;1660;-69
2021/01/13 10:57:00;;;;;;;;;;;;;;;17.04;54.04;101922.66;4959209;28;1418;-68
2021/01/13 10:59:28;;;;;;;;;;;;;;;17.00;54.36;101915.75;4947104;28;2391;-71
2021/01/13 11:01:58;;;;;;;;;;;;;;;17.01;53.66;101912.22;4978899;28;1628;-70
2021/01/13 11:04:29;;;;;;;;;;;;;;;17.01;54.51;101909.59;4959149;28;1575;-70
2021/01/13 11:07:08;;;;;;;;;;;;;;;16.98;54.12;101905.28;4974028;28;1418;-69
2021/01/13 11:09:35;;;;;;;;;;;;;;;16.98;53.86;101905.28;4975896;28;1557;-68
2021/01/13 11:12:02;;;;;;;;;;;;;;;17.02;54.45;101906.06;4979322;28;1489;-70
2021/01/13 11:14:36;;;;;;;;;;;;;;;17.00;54.46;101895.56;4978277;28;1663;-69
2021/01/13 11:17:09;;;;;;;;;;;;;;;16.98;54.57;101913.19;4959028;28;1494;-70
2021/01/13 11:19:36;;;;;;;;;;;;;;;17.01;54.94;101915.72;4977995;28;1616;-72
2021/01/13 11:22:03;;;;;;;;;;;;;;;16.99;54.14;101911.44;4981522;28;1450;-72
2021/01/13 11:24:33;;;;;;;;;;;;;;;16.97;54.35;101900.06;4981925;28;1659;-72
2021/01/13 11:27:03;;;;;;;;;;;;;;;16.94;55.02;101885.22;4974309;28;1898;-72
2021/01/13 11:29:31;;;;;;;;;;;;;;;16.92;54.75;101879.16;4962688;28;1565;-70
2021/01/13 11:31:58;;;;;;;;;;;;;;;16.98;55.67;101880.75;4959028;28;1429;-71
2021/01/13 11:34:25;;;;;;;;;;;;;;;17.07;56.22;101880.44;4979478;28;1628;-69
2021/01/13 11:36:58;;;;;;;;;;;;;;;17.07;54.98;101880.44;4976548;28;2333;-69
2021/01/13 11:39:26;;;;;;;;;;;;;;;16.99;55.02;101885.09;4980156;28;1692;-70
2021/01/13 11:41:52;;;;;;;;;;;;;;;16.96;55.04;101880.81;4963686;28;1721;-71
2021/01/13 11:44:30;;;;;;;;;;;;;;;16.96;55.49;101887.84;4980380;28;1565;-70
2021/01/13 11:47:15;;;;;;;;;;;;;;;17.07;54.55;101877.81;4979985;28;1441;-71
2021/01/13 11:49:46;;;;;;;;;;;;;;;17.00;54.91;101868.38;4962750;28;1621;-70
2021/01/13 11:52:14;;;;;;;;;;;;;;;17.00;54.86;101860.47;4981826;28;1656;-70
2021/01/13 11:54:41;;;;;;;;;;;;;;;17.03;55.03;101858.63;4944903;28;1593;-69
2021/01/13 11:57:34;;;;;;;;;;;;;;;17.06;55.23;101861.16;4973044;28;1506;-72
2021/01/13 12:00:20;;;;;;;;;;;;;;;16.98;55.12;101851.78;4967203;28;1523;-72
2021/01/13 12:02:53;;;;;;;;;;;;;;;16.97;55.34;101842.16;4944971;28;1439;-73
2021/01/13 12:05:37;;;;;;;;;;;;;;;16.97;55.42;101847.41;4969257;28;1700;-67
2021/01/13 12:08:06;;;;;;;;;;;;;;;16.94;55.29;101836.09;4964612;28;1910;-68
2021/01/13 12:10:37;;;;;;;;;;;;;;;16.92;55.55;101840.56;4977780;28;1758;-74
2021/01/13 12:13:22;;;;;;;;;;;;;;;16.97;55.45;101834.25;4960724;28;1664;-73
2021/01/13 12:15:52;;;;;;;;;;;;;;;16.98;55.59;101828.09;4938848;28;1638;-70
2021/01/13 12:18:42;;;;;;;;;;;;;;;16.96;55.64;101822.03;4959199;28;1604;-71
2021/01/13 12:21:14;;;;;;;;;;;;;;;16.93;56.01;101813.31;4966911;28;1555;-70
2021/01/13 12:23:41;;;;;;;;;;;;;;;16.92;55.85;101811.59;4983728;23;1911;-68
2021/01/13 12:26:16;;;;;;;;;;;;;;;16.94;55.96;101808.91;4957343;28;1443;-69
2021/01/13 12:28:46;;;;;;;;;;;;;;;16.94;56.34;101809.78;4959527;28;1975;-71
2021/01/13 12:31:13;;;;;;;;;;;;;;;16.92;56.24;101806.34;4958762;28;1557;-69
2021/01/13 12:33:47;;;;;;;;;;;;;;;16.93;55.69;101792.25;4920016;29;1419;-68
2021/01/13 12:36:14;;;;;;;;;;;;;;;16.97;56.63;101794.78;4951459;29;1124;-71
2021/01/13 12:38:43;;;;;;;;;;;;;;;16.92;57.07;101789.69;4952012;29;1754;-68
2021/01/13 12:41:10;;;;;;;;;;;;;;;16.91;56.87;101778.28;4951127;29;991;-69
2021/01/13 12:43:39;;;;;;;;;;;;;;;16.93;57.55;101781.72;4949856;29;1572;-70
2021/01/13 12:46:05;;;;;;;;;;;;;;;17.00;58.07;101782.38;4950885;29;1141;-73
2021/01/13 12:48:32;;;;;;;;;;;;;;;17.09;57.89;101783.84;4950927;29;1902;-72
2021/01/13 12:51:02;;;;;;;;;;;;;;;17.02;58.53;101777.94;4933183;29;1083;-74
2021/01/13 12:53:28;;;;;;;;;;;;;;;17.16;60.31;101769.56;4935636;28;1569;-72
2021/01/13 12:55:54;;;;;;;;;;;;;;;17.13;59.12;101752.09;4952539;28;916;-75
2021/01/13 12:58:20;;;;;;;;;;;;;;;17.03;59.71;101755.09;4951570;29;1356;-74
2021/01/13 13:00:46;;;;;;;;;;;;;;;16.97;59.21;101755.28;4951444;29;1180;-74
2021/01/13 13:03:13;;;;;;;;;;;;;;;16.88;59.46;101741.53;4952633;29;1352;-72
2021/01/13 13:05:39;;;;;;;;;;;;;;;16.91;59.77;101751.97;4951890;29;995;-72
2021/01/13 13:08:05;;;;;;;;;;;;;;;17.11;61.49;101753.94;4934824;29;1983;-74
2021/01/13 13:10:31;;;;;;;;;;;;;;;17.04;60.67;101751.56;4962550;28;1616;-74
2021/01/13 13:12:58;;;;;;;;;;;;;;;16.93;60.22;101752.75;4952543;29;1371;-71
2021/01/13 13:15:24;;;;;;;;;;;;;;;16.90;60.16;101752.03;4952115;29;995;-72
2021/01/13 13:17:51;;;;;;;;;;;;;;;16.94;61.16;101765.03;4950936;29;1316;-73
2021/01/13 13:20:17;;;;;;;;;;;;;;;16.97;58.71;101760.56;4948221;29;1232;-72
2021/01/13 13:22:43;;;;;;;;;;;;;;;17.09;61.54;101760.16;4949869;28;1415;-72
2021/01/13 13:25:10;;;;;;;;;;;;;;;17.07;60.71;101762.84;4949879;29;847;-74
2021/01/13 13:27:37;;;;;;;;;;;;;;;17.06;61.86;101762.88;4948806;29;1915;-77
2021/01/13 13:30:04;;;;;;;;;;;;;;;17.05;61.73;101769.09;4950123;29;799;-77